Jump to content

Colisão entre 737 e ATR em Jacarta


ErickCF

Recommended Posts

Lendo no forum do airliners.net, estão dizendo que o ATR estava sendo tratorado e o 737 decolando. Parece que todos foram evacuados da aeronave com segurança. Ainda bem.

Link to comment
Share on other sites

Duas aeronaves novas, o ATR com 1.4 anos, e o Boeing a mesma idade. Pela ficha, o ATR não tem concerto, o Boeing não foi divulgado ainda. Pancada foi forte aí.

 

Sds

Link to comment
Share on other sites

Isso podia ter dado em uma M maiúscula.

Ainda bem que os danos foram materiais. Mas dá pena ver aeronaves tão nova assim envolvidas em um acidente destes. Incursão em pista pelo que leio não é algo tão incomum quanto deveria ser.

Link to comment
Share on other sites

Parecem ser da mesma cia... :anta:

Acho que não! uma é 'TransNusa' e a outra 'Batik Air'. A não ser que tenham alguma relação...

Link to comment
Share on other sites

Accident: Batik B738 and Transnusa AT42 at Jakarta on Apr 4th 2016, collision on runway, both aircraft on fire

By Simon Hradecky, created Monday, Apr 4th 2016 14:54Z, last updated Monday, Apr 4th 2016 16:09Z

 

A Batik Air Boeing 737-800, registration PK-LBS performing flight ID-7703 from Jakarta Halim Perdanakusuma to Ujung Padang (Indonesia) with 49 passengers and 7 crew, was in the takeoff roll on runway 24 at 19:55L (12:55Z) when its left wing tip entangled with the vertical tail and left wing of a Transnusa Avions de Transport Regional ATR-42-600 registration PK-TNJ crossing the runway under tow and separated the most of the vertical tail plane as well as the left wing from the ATR, the left wing tank ruptured open. Both aircraft caught fire, the Boeing was evacuated via slides. Fire engines responded and were able to put the fires out in a matter of minutes. There were no injuries, both aircraft received substantial damage.

Indonesia's Ministry of Transport reported the Boeing was taxiing for departure, the ATR was under tow to a hangar when the aircraft collided causing damage to the left wing tip of the Boeing and separation of vertical tail and left wing of the ATR. There were no injuries. The airport needed to be closed however.

Ground observers reported the Boeing 737-800 was already accelerating for takeoff from runway 24, when the ATR under tow crossed the runway about 1280 meters/4200 feet down the runway. The Boeing rejected takeoff but could not stop in time to avoid the collision.

Radar data suggest the Boeing was accelerating for takeoff from runway 24 reaching about 110 knots over ground when takeoff was rejected. The aircraft came to a stop about 500 meters/1650 feet past the intersection of the runway with the only crossing taxiway.

Batik Air reported their flight was cleared for takeoff and was accelerating when the aircraft under tow crossed the runway. Their crew rejected takeoff however could not avoid the collision.

Metars (no later METARs available):
WIHH 041200Z 04006KT 5000 HZ FEW017CB SCT018 30/25 Q1010 RMK CB TO SW
WIHH 041100Z 04008KT 6000 SCT018 31/24 Q1008 NOSIG
WIHH 041000Z 06012KT 7000 FEW018 32/23 Q1007 NOSIG
WIHH 040900Z 06012KT 7000 FEW018 33/24 Q1007 NOSIG
WIHH 040800Z 06010KT 7000 SCT018 33/24 Q1007 NOSIG

 

Fonte: http://avherald.com/h?article=49666e3e&opt=0

Link to comment
Share on other sites

Pelo que eu entendi pelas fotos, parece que a asa do 737 passou lascando o ATR, estou certo? Se pega em cheio estava feito a hgada.

 

 

 

Abraços

 

O tratorista esta correndo até agora, últimos informes dizem que foi visto correndo na Austrália :dente:

Link to comment
Share on other sites

Pessoal deve tratar a aviação na Indonésia como carroça, só pode. Incrível a quantidade de acidentes e incidentes que acontece por lá.

 

Olha se realmente aconteceu o que estão dizendo que aconteceu no Airliners.net:

 

Lendo no forum do airliners.net, estão dizendo que o ATR estava sendo tratorado e o 737 decolando. Parece que todos foram evacuados da aeronave com segurança. Ainda bem.

 

Vc não precisa ir muito longe para um certo aeroporto que aconteceu algo estupidamente parecido, mas felizmente sem consequências desastrosas.

Link to comment
Share on other sites

Pessoal deve tratar a aviação na Indonésia como carroça, só pode. Incrível a quantidade de acidentes e incidentes que acontece por lá.

arpah..eu ia dizer a mesma coisa! Gracas a Deus isso nao teve um final triste.

Link to comment
Share on other sites

Archived

This topic is now archived and is closed to further replies.

×
×
  • Create New...

Important Information

Saiba os termos, regras e políticas de privacidade